createdAt,value
2023-08-07T00:00:29.057Z,13.59
2023-08-07T00:03:26.063Z,13.65
2023-08-07T00:06:18.057Z,13.60
2023-08-07T00:09:10.064Z,13.65
2023-08-07T00:11:55.085Z,13.51
2023-08-07T00:14:47.060Z,13.62
2023-08-07T00:17:32.463Z,13.58
2023-08-07T00:20:24.062Z,13.62
2023-08-07T00:23:09.341Z,13.69
2023-08-07T00:26:01.086Z,13.69
2023-08-07T00:28:46.173Z,13.72
2023-08-07T00:31:39.102Z,13.65
2023-08-07T00:34:23.999Z,13.63
2023-08-07T00:37:15.054Z,13.60
2023-08-07T00:40:00.198Z,13.65
2023-08-07T00:42:52.052Z,13.72
2023-08-07T00:45:44.542Z,13.62
2023-08-07T00:48:37.064Z,13.43
2023-08-07T00:51:30.090Z,13.50
2023-08-07T00:54:20.460Z,13.47
2023-08-07T00:57:20.079Z,13.36
2023-08-07T01:00:05.861Z,13.57
2023-08-07T01:02:59.216Z,13.39
2023-08-07T01:05:51.310Z,13.42
2023-08-07T01:08:50.079Z,13.34
2023-08-07T01:12:03.081Z,13.35
2023-08-07T01:14:51.721Z,13.39
2023-08-07T01:17:43.103Z,13.51
2023-08-07T01:20:28.459Z,13.55
2023-08-07T01:23:20.110Z,13.60
2023-08-07T01:26:05.157Z,13.59
2023-08-07T01:29:06.076Z,13.54
2023-08-07T01:31:54.587Z,13.52
2023-08-07T01:34:49.074Z,13.56
2023-08-07T01:37:37.555Z,13.54
2023-08-07T01:40:30.085Z,13.53
2023-08-07T01:43:22.096Z,13.65
2023-08-07T01:46:07.772Z,13.62
2023-08-07T01:48:59.080Z,13.63
2023-08-07T01:51:44.068Z,13.68
2023-08-07T01:54:35.086Z,13.46
2023-08-07T01:57:27.094Z,13.63
2023-08-07T02:00:19.094Z,13.61
2023-08-07T02:03:04.539Z,13.55
2023-08-07T02:06:03.146Z,13.62
2023-08-07T02:08:48.339Z,13.54
2023-08-07T02:11:40.101Z,13.45
2023-08-07T02:14:25.259Z,13.55
2023-08-07T02:17:17.118Z,13.65
2023-08-07T02:20:02.198Z,13.58
2023-08-07T02:22:54.134Z,13.55
2023-08-07T02:25:39.233Z,13.66
2023-08-07T02:28:31.105Z,13.73
2023-08-07T02:31:23.123Z,13.63
2023-08-07T02:34:08.198Z,13.67
2023-08-07T02:37:00.110Z,13.70
2023-08-07T02:39:45.272Z,13.71
2023-08-07T02:42:36.115Z,13.65
2023-08-07T02:45:21.282Z,13.74
2023-08-07T02:48:13.112Z,13.62
2023-08-07T02:50:58.079Z,13.64
2023-08-07T02:53:50.095Z,13.52
2023-08-07T02:56:35.287Z,13.50
2023-08-07T02:59:27.103Z,13.42
2023-08-07T03:02:12.236Z,13.46
2023-08-07T03:05:04.147Z,13.49
2023-08-07T03:07:55.315Z,13.54
2023-08-07T03:10:47.115Z,13.36
2023-08-07T03:13:31.997Z,13.35
2023-08-07T03:16:24.161Z,13.36
2023-08-07T03:19:09.073Z,13.31
2023-08-07T03:22:01.128Z,13.40
2023-08-07T03:24:49.517Z,13.30
2023-08-07T03:27:41.136Z,13.34
2023-08-07T03:30:26.147Z,13.30
2023-08-07T03:33:18.127Z,13.22
2023-08-07T03:36:03.240Z,13.15
2023-08-07T03:38:55.129Z,13.04
2023-08-07T03:41:40.145Z,13.02
2023-08-07T03:44:32.107Z,13.06
2023-08-07T03:47:17.385Z,13.13
2023-08-07T03:50:09.124Z,13.15
2023-08-07T03:52:54.084Z,13.00
2023-08-07T03:55:45.117Z,13.00
2023-08-07T03:58:37.135Z,12.91
2023-08-07T04:01:29.236Z,12.80
2023-08-07T04:04:21.121Z,12.82
2023-08-07T04:07:19.138Z,12.70
2023-08-07T04:10:04.115Z,12.59
2023-08-07T04:12:56.138Z,12.62
2023-08-07T04:15:48.136Z,12.61
2023-08-07T04:18:40.122Z,12.63
2023-08-07T04:21:32.135Z,12.55
2023-08-07T04:24:17.353Z,12.67
2023-08-07T04:27:09.133Z,12.57
2023-08-07T04:29:54.541Z,12.61
2023-08-07T04:32:46.196Z,12.74
2023-08-07T04:35:31.814Z,12.78
2023-08-07T04:38:24.150Z,12.78
2023-08-07T04:41:09.511Z,12.76
2023-08-07T04:44:01.128Z,12.75
2023-08-07T04:46:46.366Z,12.83
2023-08-07T04:49:38.128Z,12.91
2023-08-07T04:52:30.324Z,13.00
2023-08-07T04:55:15.620Z,12.89
2023-08-07T04:58:07.175Z,12.95
2023-08-07T05:00:59.775Z,12.97
2023-08-07T05:03:51.253Z,12.99
2023-08-07T05:06:49.850Z,12.88
2023-08-07T05:09:49.133Z,13.00
2023-08-07T05:12:47.160Z,12.99
2023-08-07T05:15:46.142Z,12.92
2023-08-07T05:18:32.077Z,13.06
2023-08-07T05:21:24.153Z,13.08
2023-08-07T05:24:09.193Z,13.10
2023-08-07T05:27:01.164Z,13.15
2023-08-07T05:29:53.136Z,13.28
2023-08-07T05:32:40.995Z,13.13
2023-08-07T05:35:32.148Z,13.18
2023-08-07T05:38:17.287Z,13.17
2023-08-07T05:41:09.158Z,13.23
2023-08-07T05:43:54.282Z,13.27
2023-08-07T05:46:46.159Z,13.34
2023-08-07T05:49:37.154Z,13.30
2023-08-07T05:52:22.023Z,13.35
2023-08-07T05:55:14.155Z,13.34
2023-08-07T05:58:06.163Z,13.31
2023-08-07T06:00:58.193Z,13.41
2023-08-07T06:03:49.247Z,13.42
2023-08-07T06:06:40.695Z,13.45
2023-08-07T06:09:32.170Z,13.50
2023-08-07T06:12:17.487Z,13.44
2023-08-07T06:15:09.157Z,13.49
2023-08-07T06:18:01.221Z,13.45
2023-08-07T06:20:53.159Z,13.53
2023-08-07T06:23:38.737Z,13.40
2023-08-07T06:26:31.158Z,13.34
2023-08-07T06:29:16.298Z,13.32
2023-08-07T06:32:08.191Z,13.21
2023-08-07T06:34:54.145Z,13.33
2023-08-07T06:37:46.175Z,13.19
2023-08-07T06:40:38.169Z,13.26
2023-08-07T06:43:23.084Z,12.99
2023-08-07T06:46:15.274Z,13.09
2023-08-07T06:49:00.134Z,13.17
2023-08-07T06:51:51.182Z,13.22
2023-08-07T06:54:42.168Z,13.07
2023-08-07T06:57:27.383Z,13.09
2023-08-07T07:00:19.173Z,13.09
2023-08-07T07:03:12.188Z,13.17
2023-08-07T07:06:04.230Z,13.13
2023-08-07T07:09:03.187Z,13.04
2023-08-07T07:11:48.031Z,13.11
2023-08-07T07:14:41.200Z,13.19
2023-08-07T07:17:26.473Z,13.22
2023-08-07T07:20:18.183Z,13.13
2023-08-07T07:23:03.331Z,13.17
2023-08-07T07:25:55.181Z,13.18
2023-08-07T07:28:40.359Z,13.21
2023-08-07T07:31:32.244Z,13.19
2023-08-07T07:34:17.563Z,13.30
2023-08-07T07:37:09.190Z,13.28
2023-08-07T07:39:54.276Z,13.51
2023-08-07T07:42:46.195Z,13.57
2023-08-07T07:45:31.137Z,13.58
2023-08-07T07:48:22.197Z,13.64
2023-08-07T07:51:13.202Z,13.61
2023-08-07T07:54:14.718Z,13.56
2023-08-07T07:57:07.229Z,13.76
2023-08-07T07:59:59.192Z,13.84
2023-08-07T08:02:50.207Z,14.08
2023-08-07T08:05:42.275Z,13.87
2023-08-07T08:08:41.230Z,13.83
2023-08-07T08:11:26.355Z,13.96
2023-08-07T08:14:18.208Z,14.07
2023-08-07T08:17:10.225Z,14.12
2023-08-07T08:19:55.412Z,14.35
2023-08-07T08:22:47.213Z,14.30
2023-08-07T08:25:33.780Z,14.47
2023-08-07T08:28:26.209Z,14.54
2023-08-07T08:31:17.252Z,14.57
2023-08-07T08:34:09.217Z,14.57
2023-08-07T08:37:01.215Z,14.74
2023-08-07T08:39:53.216Z,14.67
2023-08-07T08:42:40.302Z,14.73
2023-08-07T08:45:33.216Z,14.89
2023-08-07T08:48:24.718Z,14.71
2023-08-07T08:51:19.196Z,14.89
2023-08-07T08:54:11.209Z,14.86
2023-08-07T08:56:58.341Z,15.15
2023-08-07T08:59:51.224Z,15.48
2023-08-07T09:02:43.238Z,15.92
2023-08-07T09:05:35.237Z,16.60
2023-08-07T09:08:27.306Z,17.26
2023-08-07T09:11:20.204Z,17.86
2023-08-07T09:14:12.241Z,18.80
2023-08-07T09:17:06.245Z,18.30
2023-08-07T09:19:59.226Z,18.23
2023-08-07T09:22:44.503Z,16.61
2023-08-07T09:25:40.235Z,16.91
2023-08-07T09:28:25.322Z,16.55
2023-08-07T09:31:22.293Z,16.30
2023-08-07T09:34:14.232Z,15.91
2023-08-07T09:36:59.343Z,15.54
2023-08-07T09:39:51.222Z,15.62
2023-08-07T09:42:38.648Z,15.63
2023-08-07T09:45:32.250Z,15.40
2023-08-07T09:48:29.314Z,15.46
2023-08-07T09:51:21.419Z,15.38
2023-08-07T09:54:06.345Z,15.21
2023-08-07T09:57:04.301Z,15.07
2023-08-07T09:59:57.243Z,15.19
2023-08-07T10:02:43.605Z,15.57
2023-08-07T10:05:35.241Z,15.85
2023-08-07T10:08:26.628Z,17.31
2023-08-07T10:11:19.252Z,17.17
2023-08-07T10:14:11.333Z,17.72
2023-08-07T10:16:56.938Z,18.22
2023-08-07T10:19:49.262Z,17.95
2023-08-07T10:22:37.677Z,18.08
2023-08-07T10:25:31.247Z,17.70
2023-08-07T10:28:20.604Z,18.37
2023-08-07T10:31:14.271Z,18.92
2023-08-07T10:33:59.596Z,19.03
2023-08-07T10:36:51.252Z,20.05
2023-08-07T10:39:36.648Z,20.23
2023-08-07T10:42:29.230Z,19.45
2023-08-07T10:45:17.524Z,20.57
2023-08-07T10:48:09.319Z,20.69
2023-08-07T10:51:03.718Z,22.07
2023-08-07T10:53:58.250Z,21.73
2023-08-07T10:56:45.129Z,21.31
2023-08-07T10:59:37.256Z,22.05
2023-08-07T11:02:27.403Z,19.84
2023-08-07T11:05:20.296Z,20.62
2023-08-07T11:08:12.335Z,20.60
2023-08-07T11:11:11.263Z,22.53
2023-08-07T11:13:56.607Z,22.09
2023-08-07T11:16:49.321Z,20.47
2023-08-07T11:19:41.259Z,19.52
2023-08-07T11:22:32.311Z,20.91
2023-08-07T11:25:24.297Z,21.51
2023-08-07T11:28:09.578Z,21.07
2023-08-07T11:31:03.359Z,21.92
2023-08-07T11:33:51.417Z,21.64
2023-08-07T11:36:50.280Z,21.73
2023-08-07T11:39:42.929Z,20.81
2023-08-07T11:42:35.270Z,19.35
2023-08-07T11:45:20.530Z,19.53
2023-08-07T11:48:12.281Z,19.18
2023-08-07T11:51:05.318Z,19.23
2023-08-07T11:53:50.533Z,19.51
2023-08-07T11:56:42.286Z,19.55
2023-08-07T11:59:27.481Z,19.83
2023-08-07T12:02:19.302Z,19.95
2023-08-07T12:05:04.820Z,20.34
2023-08-07T12:08:03.303Z,19.65
2023-08-07T12:10:54.489Z,19.53
2023-08-07T12:13:48.271Z,19.63
2023-08-07T12:16:43.282Z,19.65
2023-08-07T12:19:37.893Z,19.73
2023-08-07T12:22:29.294Z,19.78
2023-08-07T12:25:20.290Z,19.73
2023-08-07T12:28:05.321Z,19.81
2023-08-07T12:30:58.392Z,19.67
2023-08-07T12:33:43.702Z,19.70
2023-08-07T12:36:35.300Z,19.90
2023-08-07T12:45:10.297Z,20.34
2023-08-07T12:47:55.178Z,20.06
2023-08-07T12:50:48.309Z,20.02
2023-08-07T12:53:33.554Z,19.86
2023-08-07T12:56:25.303Z,19.62
2023-08-07T12:59:10.518Z,19.31
2023-08-07T13:02:02.307Z,18.76
2023-08-07T13:04:47.595Z,19.22
2023-08-07T13:07:46.312Z,19.49
2023-08-07T13:10:32.443Z,19.47
2023-08-07T13:13:24.319Z,19.46
2023-08-07T13:16:09.361Z,19.89
2023-08-07T13:19:00.596Z,19.94
2023-08-07T13:21:46.201Z,19.68
2023-08-07T13:24:38.314Z,19.72
2023-08-07T13:27:23.475Z,19.62
2023-08-07T13:30:16.305Z,19.93
2023-08-07T13:33:01.462Z,19.98
2023-08-07T13:35:53.349Z,20.05
2023-08-07T13:38:38.487Z,19.82
2023-08-07T13:41:30.340Z,19.60
2023-08-07T13:44:17.556Z,19.65
2023-08-07T13:47:09.320Z,19.72
2023-08-07T13:49:55.570Z,20.03
2023-08-07T13:52:48.460Z,19.81
2023-08-07T13:55:37.170Z,19.25
2023-08-07T13:58:28.332Z,18.62
2023-08-07T14:01:13.701Z,18.11
2023-08-07T14:04:05.313Z,17.86
2023-08-07T14:07:03.349Z,18.28
2023-08-07T14:09:55.460Z,18.77
2023-08-07T14:12:47.343Z,19.00
2023-08-07T14:15:32.292Z,19.26
2023-08-07T14:18:24.353Z,19.24
2023-08-07T14:21:09.937Z,19.34
2023-08-07T14:24:02.326Z,19.64
2023-08-07T14:26:54.344Z,19.70
2023-08-07T14:29:39.535Z,19.33
2023-08-07T14:32:31.395Z,19.35
2023-08-07T14:35:16.327Z,19.20
2023-08-07T14:38:08.351Z,18.87
2023-08-07T14:40:54.517Z,18.79
2023-08-07T14:43:46.330Z,18.59
2023-08-07T14:46:31.568Z,18.49
2023-08-07T14:49:23.357Z,18.53
2023-08-07T14:52:08.513Z,18.38
2023-08-07T14:55:03.360Z,18.40
2023-08-07T14:57:48.421Z,18.48
2023-08-07T15:00:40.372Z,18.44
2023-08-07T15:03:25.445Z,18.73
2023-08-07T15:06:17.350Z,18.80
2023-08-07T15:09:10.104Z,18.96
2023-08-07T15:12:01.595Z,19.03
2023-08-07T15:14:47.178Z,19.17
2023-08-07T15:17:39.418Z,19.31
2023-08-07T15:20:25.411Z,19.34
2023-08-07T15:23:17.383Z,19.42
2023-08-07T15:26:02.316Z,19.35
2023-08-07T15:28:54.353Z,19.44
2023-08-07T15:31:39.397Z,19.49
2023-08-07T15:34:31.358Z,19.45
2023-08-07T15:37:16.262Z,19.47
2023-08-07T15:40:08.400Z,19.41
2023-08-07T15:42:53.490Z,19.64
2023-08-07T15:45:45.429Z,19.58
2023-08-07T15:48:30.831Z,19.57
2023-08-07T15:51:22.424Z,19.66
2023-08-07T15:54:07.472Z,19.39
2023-08-07T15:56:59.641Z,19.18
2023-08-07T15:59:44.989Z,19.28
2023-08-07T16:02:36.439Z,19.13
2023-08-07T16:05:22.123Z,19.21
2023-08-07T16:08:13.366Z,18.99
2023-08-07T16:10:58.849Z,18.91
2023-08-07T16:13:50.378Z,19.12
2023-08-07T16:16:42.390Z,18.95
2023-08-07T16:19:27.893Z,19.01
2023-08-07T16:22:19.421Z,19.15
2023-08-07T16:25:07.527Z,19.23
2023-08-07T16:27:59.397Z,19.00
2023-08-07T16:30:44.573Z,18.67
2023-08-07T16:33:36.376Z,18.68
2023-08-07T16:36:21.602Z,18.76
2023-08-07T16:39:13.376Z,18.69
2023-08-07T16:41:58.294Z,18.57
2023-08-07T16:44:49.392Z,18.64
2023-08-07T16:47:34.570Z,18.58
2023-08-07T16:50:26.394Z,18.56
2023-08-07T16:53:12.530Z,18.53
2023-08-07T16:56:04.390Z,18.56
2023-08-07T16:58:51.302Z,18.64
2023-08-07T17:01:43.405Z,18.35
2023-08-07T17:04:30.740Z,18.48
2023-08-07T17:07:29.403Z,18.39
2023-08-07T17:10:17.146Z,18.35
2023-08-07T17:13:08.389Z,18.27
2023-08-07T17:15:53.670Z,18.30
2023-08-07T17:18:45.392Z,18.27
2023-08-07T17:21:30.623Z,18.16
2023-08-07T17:24:22.392Z,18.25
2023-08-07T17:27:07.327Z,18.27
2023-08-07T17:30:00.420Z,18.20
2023-08-07T17:32:45.484Z,18.07
2023-08-07T17:35:38.424Z,18.10
2023-08-07T17:38:30.396Z,18.08
2023-08-07T17:41:15.719Z,18.05
2023-08-07T17:44:07.589Z,17.93
2023-08-07T17:47:00.660Z,17.93
2023-08-07T17:49:52.403Z,17.82
2023-08-07T17:52:38.753Z,17.85
2023-08-07T17:55:31.476Z,17.80
2023-08-07T17:58:16.502Z,17.73
2023-08-07T18:01:08.495Z,17.72
2023-08-07T18:04:03.401Z,17.73
2023-08-07T18:07:09.509Z,17.58
2023-08-07T18:10:01.419Z,17.57
2023-08-07T18:12:46.398Z,17.53
2023-08-07T18:15:37.434Z,17.57
2023-08-07T18:18:22.538Z,17.30
2023-08-07T18:21:14.423Z,17.08
2023-08-07T18:23:59.884Z,16.90
2023-08-07T18:26:52.429Z,16.86
2023-08-07T18:29:37.365Z,16.77
2023-08-07T18:32:29.476Z,16.75
2023-08-07T18:35:15.318Z,16.67
2023-08-07T18:38:06.420Z,16.63
2023-08-07T18:40:58.450Z,16.57
2023-08-07T18:43:43.353Z,16.53
2023-08-07T18:46:35.456Z,16.50
2023-08-07T18:49:21.894Z,16.33
2023-08-07T18:52:13.452Z,16.32
2023-08-07T18:55:05.477Z,16.26
2023-08-07T18:57:57.458Z,16.26
2023-08-07T19:00:42.808Z,16.24
2023-08-07T19:03:34.528Z,16.21
2023-08-07T19:06:19.574Z,16.18
2023-08-07T19:09:18.435Z,16.13
2023-08-07T19:12:03.469Z,16.07
2023-08-07T19:14:55.443Z,16.03
2023-08-07T19:17:40.620Z,15.89
2023-08-07T19:20:31.435Z,15.88
2023-08-07T19:23:16.465Z,15.80
2023-08-07T19:26:08.443Z,15.72
2023-08-07T19:29:00.434Z,15.72
2023-08-07T19:31:45.525Z,15.68
2023-08-07T19:34:37.466Z,15.62
2023-08-07T19:37:23.193Z,15.50
2023-08-07T19:40:15.441Z,15.39
2023-08-07T19:43:00.360Z,15.35
2023-08-07T19:45:51.481Z,15.26
2023-08-07T19:48:38.428Z,15.15
2023-08-07T19:51:30.459Z,14.89
2023-08-07T19:54:15.281Z,14.92
2023-08-07T19:57:06.463Z,14.94
2023-08-07T19:59:51.452Z,14.95
2023-08-07T20:02:43.485Z,14.79
2023-08-07T20:05:34.471Z,14.65
2023-08-07T20:08:25.485Z,14.64
2023-08-07T20:11:23.461Z,14.52
2023-08-07T20:14:08.543Z,14.55
2023-08-07T20:17:00.464Z,14.62
2023-08-07T20:19:54.456Z,14.57
2023-08-07T20:22:42.788Z,14.52
2023-08-07T20:25:34.559Z,14.56
2023-08-07T20:28:19.392Z,14.53
2023-08-07T20:31:11.500Z,14.51
2023-08-07T20:33:59.340Z,14.49
2023-08-07T20:36:50.473Z,14.57
2023-08-07T20:39:35.708Z,14.70
2023-08-07T20:42:27.467Z,14.83
2023-08-07T20:45:12.390Z,14.91
2023-08-07T20:48:03.497Z,14.85
2023-08-07T20:50:48.352Z,14.83
2023-08-07T20:53:39.456Z,14.81
2023-08-07T20:56:24.967Z,14.86
2023-08-07T20:59:16.474Z,14.89
2023-08-07T21:02:01.741Z,14.80
2023-08-07T21:04:53.519Z,14.81
2023-08-07T21:07:45.501Z,14.75
2023-08-07T21:10:43.475Z,14.77
2023-08-07T21:13:35.464Z,14.86
2023-08-07T21:16:20.521Z,14.83
2023-08-07T21:19:12.480Z,14.92
2023-08-07T21:21:57.857Z,14.99
2023-08-07T21:24:49.479Z,15.06
2023-08-07T21:27:34.953Z,15.09
2023-08-07T21:30:26.485Z,15.12
2023-08-07T21:33:11.846Z,15.14
2023-08-07T21:36:03.484Z,15.09
2023-08-07T21:38:48.565Z,15.11
2023-08-07T21:41:39.485Z,15.01
2023-08-07T21:44:24.724Z,14.97
2023-08-07T21:47:16.506Z,14.95
2023-08-07T21:50:01.854Z,14.91
2023-08-07T21:52:53.479Z,14.83
2023-08-07T21:55:45.503Z,14.85
2023-08-07T21:58:30.374Z,14.87
2023-08-07T22:01:22.616Z,14.81
2023-08-07T22:04:14.480Z,14.80
2023-08-07T22:07:05.508Z,14.80
2023-08-07T22:09:57.531Z,14.85
2023-08-07T22:12:49.481Z,14.79
2023-08-07T22:15:41.506Z,14.73
2023-08-07T22:18:26.946Z,14.67
2023-08-07T22:21:19.521Z,14.71
2023-08-07T22:24:11.493Z,14.60
2023-08-07T22:26:56.637Z,14.62
2023-08-07T22:29:48.505Z,14.60
2023-08-07T22:32:39.627Z,14.42
2023-08-07T22:35:24.965Z,14.42
2023-08-07T22:38:16.511Z,14.27
2023-08-07T22:41:08.526Z,14.24
2023-08-07T22:43:53.748Z,14.31
2023-08-07T22:46:45.522Z,14.28
2023-08-07T22:49:31.078Z,14.31
2023-08-07T22:52:22.526Z,14.26
2023-08-07T22:55:08.231Z,14.24
2023-08-07T22:57:59.509Z,14.21
2023-08-07T23:00:44.696Z,14.23
2023-08-07T23:03:36.556Z,14.05
2023-08-07T23:06:21.695Z,14.05
2023-08-07T23:09:13.518Z,14.00
2023-08-07T23:11:58.985Z,13.97
2023-08-07T23:14:50.533Z,13.95
2023-08-07T23:17:35.558Z,13.85
2023-08-07T23:20:27.522Z,13.89
2023-08-07T23:23:12.696Z,13.87
2023-08-07T23:26:04.536Z,13.89
2023-08-07T23:28:49.437Z,13.80
2023-08-07T23:31:40.591Z,13.76
2023-08-07T23:34:25.824Z,13.81
2023-08-07T23:37:17.509Z,13.76
2023-08-07T23:40:02.312Z,13.81
2023-08-07T23:42:54.509Z,13.71
2023-08-07T23:45:39.558Z,13.67
2023-08-07T23:48:31.525Z,13.65
2023-08-07T23:51:23.551Z,13.62
2023-08-07T23:54:14.534Z,13.57
2023-08-07T23:56:59.984Z,13.58
2023-08-07T23:59:51.533Z,13.59
